sensor_id;sensor_type;location;lat;lon;timestamp;pressure;altitude;pressure_sealevel;temperature;humidity
5413;BME280;2729;50.056;8.678;2023-04-15T00:00:18;99413.53;;;6.58;100.00
5413;BME280;2729;50.056;8.678;2023-04-15T00:02:46;99411.75;;;6.60;100.00
5413;BME280;2729;50.056;8.678;2023-04-15T00:05:12;99411.16;;;6.49;100.00
5413;BME280;2729;50.056;8.678;2023-04-15T00:07:38;99417.19;;;6.50;100.00
5413;BME280;2729;50.056;8.678;2023-04-15T00:10:05;99409.50;;;6.45;100.00
5413;BME280;2729;50.056;8.678;2023-04-15T00:12:31;99411.31;;;6.41;100.00
5413;BME280;2729;50.056;8.678;2023-04-15T00:14:57;99409.69;;;6.37;100.00
5413;BME280;2729;50.056;8.678;2023-04-15T00:17:23;99408.84;;;6.35;100.00
5413;BME280;2729;50.056;8.678;2023-04-15T00:19:49;99408.78;;;6.38;100.00
5413;BME280;2729;50.056;8.678;2023-04-15T00:22:15;99401.13;;;6.34;100.00
5413;BME280;2729;50.056;8.678;2023-04-15T00:24:42;99410.63;;;6.33;100.00
5413;BME280;2729;50.056;8.678;2023-04-15T00:27:09;99404.00;;;6.20;100.00
5413;BME280;2729;50.056;8.678;2023-04-15T00:29:36;99404.13;;;6.14;100.00
5413;BME280;2729;50.056;8.678;2023-04-15T00:32:02;99405.09;;;6.10;100.00
5413;BME280;2729;50.056;8.678;2023-04-15T00:34:28;99396.31;;;6.17;100.00
5413;BME280;2729;50.056;8.678;2023-04-15T00:36:54;99398.81;;;6.20;100.00
5413;BME280;2729;50.056;8.678;2023-04-15T00:39:20;99397.09;;;6.21;100.00
5413;BME280;2729;50.056;8.678;2023-04-15T00:41:46;99402.16;;;6.25;100.00
5413;BME280;2729;50.056;8.678;2023-04-15T00:44:13;99389.97;;;6.30;100.00
5413;BME280;2729;50.056;8.678;2023-04-15T00:46:39;99392.78;;;6.20;100.00
5413;BME280;2729;50.056;8.678;2023-04-15T00:49:06;99386.91;;;6.11;100.00
5413;BME280;2729;50.056;8.678;2023-04-15T00:51:33;99391.34;;;6.06;100.00
5413;BME280;2729;50.056;8.678;2023-04-15T00:54:02;99397.56;;;5.98;100.00
5413;BME280;2729;50.056;8.678;2023-04-15T00:56:29;99388.81;;;6.03;100.00
5413;BME280;2729;50.056;8.678;2023-04-15T00:58:57;99388.69;;;6.09;100.00
5413;BME280;2729;50.056;8.678;2023-04-15T01:01:24;99391.44;;;6.02;100.00
5413;BME280;2729;50.056;8.678;2023-04-15T01:03:51;99393.09;;;6.06;100.00
5413;BME280;2729;50.056;8.678;2023-04-15T01:06:17;99396.38;;;6.14;100.00
5413;BME280;2729;50.056;8.678;2023-04-15T01:08:44;99393.78;;;6.14;100.00
5413;BME280;2729;50.056;8.678;2023-04-15T01:11:13;99395.25;;;6.26;100.00
5413;BME280;2729;50.056;8.678;2023-04-15T01:13:39;99397.41;;;6.05;100.00
5413;BME280;2729;50.056;8.678;2023-04-15T01:16:07;99393.44;;;5.88;100.00
5413;BME280;2729;50.056;8.678;2023-04-15T01:18:36;99396.69;;;5.99;100.00
5413;BME280;2729;50.056;8.678;2023-04-15T01:21:03;99401.78;;;6.03;100.00
5413;BME280;2729;50.056;8.678;2023-04-15T01:23:30;99403.53;;;6.01;100.00
5413;BME280;2729;50.056;8.678;2023-04-15T01:25:58;99407.88;;;6.01;100.00
5413;BME280;2729;50.056;8.678;2023-04-15T01:28:24;99406.75;;;6.12;100.00
5413;BME280;2729;50.056;8.678;2023-04-15T01:31:10;99399.78;;;6.16;100.00
5413;BME280;2729;50.056;8.678;2023-04-15T01:33:39;99397.47;;;6.02;100.00
5413;BME280;2729;50.056;8.678;2023-04-15T01:36:06;99408.75;;;6.00;100.00
5413;BME280;2729;50.056;8.678;2023-04-15T01:38:36;99397.50;;;6.01;100.00
5413;BME280;2729;50.056;8.678;2023-04-15T01:41:03;99398.28;;;6.04;100.00
5413;BME280;2729;50.056;8.678;2023-04-15T01:43:29;99397.31;;;6.10;100.00
5413;BME280;2729;50.056;8.678;2023-04-15T01:45:55;99397.47;;;6.02;100.00
5413;BME280;2729;50.056;8.678;2023-04-15T01:48:22;99394.88;;;6.02;100.00
5413;BME280;2729;50.056;8.678;2023-04-15T01:50:48;99400.25;;;5.93;100.00
5413;BME280;2729;50.056;8.678;2023-04-15T01:53:14;99396.16;;;5.80;100.00
5413;BME280;2729;50.056;8.678;2023-04-15T01:55:40;99403.09;;;5.79;100.00
5413;BME280;2729;50.056;8.678;2023-04-15T01:58:06;99394.28;;;5.88;100.00
5413;BME280;2729;50.056;8.678;2023-04-15T02:00:32;99397.72;;;5.89;100.00
5413;BME280;2729;50.056;8.678;2023-04-15T02:02:58;99398.53;;;5.92;100.00
5413;BME280;2729;50.056;8.678;2023-04-15T02:05:24;99395.91;;;5.95;100.00
5413;BME280;2729;50.056;8.678;2023-04-15T02:07:50;99394.38;;;5.84;100.00
5413;BME280;2729;50.056;8.678;2023-04-15T02:10:17;99400.66;;;5.72;100.00
5413;BME280;2729;50.056;8.678;2023-04-15T02:12:43;99398.94;;;5.71;100.00
5413;BME280;2729;50.056;8.678;2023-04-15T02:15:09;99399.09;;;5.63;100.00
5413;BME280;2729;50.056;8.678;2023-04-15T02:17:36;99401.69;;;5.62;100.00
5413;BME280;2729;50.056;8.678;2023-04-15T02:20:03;99403.41;;;5.63;100.00
5413;BME280;2729;50.056;8.678;2023-04-15T02:22:33;99402.53;;;5.64;100.00
5413;BME280;2729;50.056;8.678;2023-04-15T02:24:59;99398.84;;;5.75;100.00
5413;BME280;2729;50.056;8.678;2023-04-15T02:27:25;99397.84;;;5.82;100.00
5413;BME280;2729;50.056;8.678;2023-04-15T02:29:52;99400.50;;;5.79;100.00
5413;BME280;2729;50.056;8.678;2023-04-15T02:32:18;99404.78;;;5.80;100.00
5413;BME280;2729;50.056;8.678;2023-04-15T02:34:46;99403.06;;;5.81;100.00
5413;BME280;2729;50.056;8.678;2023-04-15T02:37:12;99405.75;;;5.75;100.00
5413;BME280;2729;50.056;8.678;2023-04-15T02:39:38;99400.81;;;5.63;100.00
5413;BME280;2729;50.056;8.678;2023-04-15T02:42:04;99403.50;;;5.58;100.00
5413;BME280;2729;50.056;8.678;2023-04-15T02:44:31;99406.84;;;5.63;100.00
5413;BME280;2729;50.056;8.678;2023-04-15T02:47:00;99407.03;;;5.54;100.00
5413;BME280;2729;50.056;8.678;2023-04-15T02:49:26;99408.69;;;5.57;100.00
5413;BME280;2729;50.056;8.678;2023-04-15T02:51:54;99413.66;;;5.69;100.00
5413;BME280;2729;50.056;8.678;2023-04-15T02:54:21;99406.09;;;5.58;100.00
5413;BME280;2729;50.056;8.678;2023-04-15T02:56:50;99406.88;;;5.62;100.00
5413;BME280;2729;50.056;8.678;2023-04-15T02:59:19;99404.28;;;5.62;100.00
5413;BME280;2729;50.056;8.678;2023-04-15T03:01:46;99413.00;;;5.58;100.00
5413;BME280;2729;50.056;8.678;2023-04-15T03:04:11;99406.34;;;5.44;100.00
5413;BME280;2729;50.056;8.678;2023-04-15T03:06:38;99407.22;;;5.43;100.00
5413;BME280;2729;50.056;8.678;2023-04-15T03:09:07;99415.19;;;5.33;100.00
5413;BME280;2729;50.056;8.678;2023-04-15T03:11:35;99415.34;;;5.24;100.00
5413;BME280;2729;50.056;8.678;2023-04-15T03:14:05;99413.69;;;5.18;100.00
5413;BME280;2729;50.056;8.678;2023-04-15T03:16:34;99410.22;;;5.19;100.00
5413;BME280;2729;50.056;8.678;2023-04-15T03:19:01;99409.31;;;5.23;100.00
5413;BME280;2729;50.056;8.678;2023-04-15T03:21:27;99412.59;;;5.33;100.00
5413;BME280;2729;50.056;8.678;2023-04-15T03:23:53;99410.25;;;5.16;100.00
5413;BME280;2729;50.056;8.678;2023-04-15T03:26:25;99409.34;;;5.22;100.00
5413;BME280;2729;50.056;8.678;2023-04-15T03:28:51;99403.94;;;5.34;100.00
5413;BME280;2729;50.056;8.678;2023-04-15T03:31:18;99398.84;;;5.29;100.00
5413;BME280;2729;50.056;8.678;2023-04-15T03:33:43;99399.50;;;5.40;100.00
5413;BME280;2729;50.056;8.678;2023-04-15T03:36:09;99404.03;;;5.29;100.00
5413;BME280;2729;50.056;8.678;2023-04-15T03:38:35;99407.69;;;5.16;100.00
5413;BME280;2729;50.056;8.678;2023-04-15T03:41:01;99401.81;;;5.06;100.00
5413;BME280;2729;50.056;8.678;2023-04-15T03:43:27;99404.47;;;5.02;100.00
5413;BME280;2729;50.056;8.678;2023-04-15T03:45:53;99404.38;;;5.06;100.00
5413;BME280;2729;50.056;8.678;2023-04-15T03:48:19;99402.50;;;5.16;100.00
5413;BME280;2729;50.056;8.678;2023-04-15T03:50:45;99408.47;;;5.21;100.00
5413;BME280;2729;50.056;8.678;2023-04-15T03:53:11;99399.72;;;5.28;100.00
5413;BME280;2729;50.056;8.678;2023-04-15T03:55:37;99390.94;;;5.38;100.00
5413;BME280;2729;50.056;8.678;2023-04-15T03:58:03;99386.56;;;5.40;100.00
5413;BME280;2729;50.056;8.678;2023-04-15T04:00:29;99383.13;;;5.40;100.00
5413;BME280;2729;50.056;8.678;2023-04-15T04:02:55;99389.53;;;5.17;100.00
5413;BME280;2729;50.056;8.678;2023-04-15T04:05:21;99390.59;;;5.07;100.00
5413;BME280;2729;50.056;8.678;2023-04-15T04:07:47;99387.16;;;5.07;100.00
5413;BME280;2729;50.056;8.678;2023-04-15T04:10:13;99389.50;;;5.22;100.00
5413;BME280;2729;50.056;8.678;2023-04-15T04:12:39;99386.91;;;5.22;100.00
5413;BME280;2729;50.056;8.678;2023-04-15T04:15:05;99387.72;;;5.26;100.00
5413;BME280;2729;50.056;8.678;2023-04-15T04:17:31;99390.31;;;5.24;100.00
5413;BME280;2729;50.056;8.678;2023-04-15T04:19:57;99400.66;;;5.26;100.00
5413;BME280;2729;50.056;8.678;2023-04-15T04:22:23;99393.03;;;5.15;100.00
5413;BME280;2729;50.056;8.678;2023-04-15T04:24:50;99393.09;;;5.12;100.00
5413;BME280;2729;50.056;8.678;2023-04-15T04:27:16;99398.41;;;5.04;100.00
5413;BME280;2729;50.056;8.678;2023-04-15T04:29:42;99395.91;;;4.98;100.00
5413;BME280;2729;50.056;8.678;2023-04-15T04:32:08;99388.91;;;5.05;100.00
5413;BME280;2729;50.056;8.678;2023-04-15T04:34:34;99393.22;;;5.04;100.00
5413;BME280;2729;50.056;8.678;2023-04-15T04:37:00;99400.00;;;5.11;100.00
5413;BME280;2729;50.056;8.678;2023-04-15T04:39:26;99400.03;;;5.10;100.00
5413;BME280;2729;50.056;8.678;2023-04-15T04:41:52;99404.19;;;5.18;100.00
5413;BME280;2729;50.056;8.678;2023-04-15T04:44:18;99407.47;;;5.30;100.00
5413;BME280;2729;50.056;8.678;2023-04-15T04:46:43;99404.88;;;5.30;100.00
5413;BME280;2729;50.056;8.678;2023-04-15T04:49:10;99403.03;;;5.36;100.00
5413;BME280;2729;50.056;8.678;2023-04-15T04:51:36;99405.56;;;5.39;100.00
5413;BME280;2729;50.056;8.678;2023-04-15T04:54:02;99405.88;;;5.20;100.00
5413;BME280;2729;50.056;8.678;2023-04-15T04:56:28;99406.09;;;5.07;100.00
5413;BME280;2729;50.056;8.678;2023-04-15T04:58:54;99415.53;;;5.10;100.00
5413;BME280;2729;50.056;8.678;2023-04-15T05:01:21;99415.34;;;5.24;100.00
5413;BME280;2729;50.056;8.678;2023-04-15T05:03:47;99415.00;;;5.42;100.00
5413;BME280;2729;50.056;8.678;2023-04-15T05:06:12;99414.81;;;5.53;100.00
5413;BME280;2729;50.056;8.678;2023-04-15T05:08:38;99414.69;;;5.59;100.00
5413;BME280;2729;50.056;8.678;2023-04-15T05:11:05;99415.41;;;5.67;100.00
5413;BME280;2729;50.056;8.678;2023-04-15T05:13:31;99416.31;;;5.64;100.00
5413;BME280;2729;50.056;8.678;2023-04-15T05:15:57;99420.69;;;5.61;100.00
5413;BME280;2729;50.056;8.678;2023-04-15T05:18:23;99425.84;;;5.62;100.00
5413;BME280;2729;50.056;8.678;2023-04-15T05:20:49;99424.03;;;5.67;100.00
5413;BME280;2729;50.056;8.678;2023-04-15T05:23:15;99427.59;;;5.62;100.00
5413;BME280;2729;50.056;8.678;2023-04-15T05:25:42;99424.72;;;5.77;100.00
5413;BME280;2729;50.056;8.678;2023-04-15T05:28:08;99422.25;;;5.71;100.00
5413;BME280;2729;50.056;8.678;2023-04-15T05:30:34;99428.06;;;5.82;100.00
5413;BME280;2729;50.056;8.678;2023-04-15T05:33:00;99421.84;;;5.92;100.00
5413;BME280;2729;50.056;8.678;2023-04-15T05:35:26;99425.25;;;5.94;100.00
5413;BME280;2729;50.056;8.678;2023-04-15T05:37:52;99427.06;;;5.91;100.00
5413;BME280;2729;50.056;8.678;2023-04-15T05:40:18;99432.03;;;6.01;100.00
5413;BME280;2729;50.056;8.678;2023-04-15T05:42:44;99435.34;;;6.08;100.00
5413;BME280;2729;50.056;8.678;2023-04-15T05:45:10;99439.75;;;6.03;100.00
5413;BME280;2729;50.056;8.678;2023-04-15T05:47:37;99443.06;;;6.11;100.00
5413;BME280;2729;50.056;8.678;2023-04-15T05:50:03;99441.03;;;6.25;100.00
5413;BME280;2729;50.056;8.678;2023-04-15T05:52:30;99437.47;;;6.31;100.00
5413;BME280;2729;50.056;8.678;2023-04-15T05:54:56;99439.78;;;6.43;100.00
5413;BME280;2729;50.056;8.678;2023-04-15T05:57:22;99444.03;;;6.47;100.00
5413;BME280;2729;50.056;8.678;2023-04-15T05:59:48;99443.03;;;6.53;100.00
5413;BME280;2729;50.056;8.678;2023-04-15T06:02:16;99449.00;;;6.56;100.00
5413;BME280;2729;50.056;8.678;2023-04-15T06:04:42;99446.06;;;6.71;100.00
5413;BME280;2729;50.056;8.678;2023-04-15T06:07:08;99451.78;;;6.86;100.00
5413;BME280;2729;50.056;8.678;2023-04-15T06:09:34;99451.66;;;6.92;100.00
5413;BME280;2729;50.056;8.678;2023-04-15T06:12:01;99451.22;;;7.10;100.00
5413;BME280;2729;50.056;8.678;2023-04-15T06:14:26;99449.13;;;7.24;100.00
5413;BME280;2729;50.056;8.678;2023-04-15T06:16:53;99457.31;;;7.43;100.00
5413;BME280;2729;50.056;8.678;2023-04-15T06:19:18;99450.06;;;7.56;100.00
5413;BME280;2729;50.056;8.678;2023-04-15T06:21:45;99451.47;;;7.67;100.00
5413;BME280;2729;50.056;8.678;2023-04-15T06:24:11;99456.25;;;7.84;100.00
5413;BME280;2729;50.056;8.678;2023-04-15T06:26:38;99451.78;;;7.89;100.00
5413;BME280;2729;50.056;8.678;2023-04-15T06:29:04;99457.38;;;8.06;100.00
5413;BME280;2729;50.056;8.678;2023-04-15T06:31:30;99459.63;;;8.19;100.00
5413;BME280;2729;50.056;8.678;2023-04-15T06:33:56;99458.41;;;8.01;100.00
5413;BME280;2729;50.056;8.678;2023-04-15T06:36:22;99457.50;;;8.33;100.00
5413;BME280;2729;50.056;8.678;2023-04-15T06:38:47;99459.03;;;8.40;100.00
5413;BME280;2729;50.056;8.678;2023-04-15T06:41:13;99465.81;;;8.46;100.00
5413;BME280;2729;50.056;8.678;2023-04-15T06:43:40;99467.41;;;8.50;100.00
5413;BME280;2729;50.056;8.678;2023-04-15T06:46:06;99471.94;;;8.43;100.00
5413;BME280;2729;50.056;8.678;2023-04-15T06:48:32;99470.19;;;8.73;100.00
5413;BME280;2729;50.056;8.678;2023-04-15T06:50:58;99462.91;;;8.84;100.00
5413;BME280;2729;50.056;8.678;2023-04-15T06:53:24;99470.56;;;8.89;100.00
5413;BME280;2729;50.056;8.678;2023-04-15T06:55:52;99465.38;;;8.89;100.00
5413;BME280;2729;50.056;8.678;2023-04-15T06:58:18;99470.19;;;9.01;100.00
5413;BME280;2729;50.056;8.678;2023-04-15T07:00:44;99470.59;;;9.15;100.00
5413;BME280;2729;50.056;8.678;2023-04-15T07:03:11;99471.41;;;9.17;100.00
5413;BME280;2729;50.056;8.678;2023-04-15T07:05:37;99476.34;;;9.25;100.00
5413;BME280;2729;50.056;8.678;2023-04-15T07:08:04;99476.69;;;9.14;100.00
5413;BME280;2729;50.056;8.678;2023-04-15T07:10:30;99486.91;;;9.20;100.00
5413;BME280;2729;50.056;8.678;2023-04-15T07:12:56;99474.47;;;9.30;100.00
5413;BME280;2729;50.056;8.678;2023-04-15T07:15:22;99478.66;;;9.34;100.00
5413;BME280;2729;50.056;8.678;2023-04-15T07:17:48;99476.00;;;9.35;100.00
5413;BME280;2729;50.056;8.678;2023-04-15T07:20:14;99471.34;;;9.45;100.00
5413;BME280;2729;50.056;8.678;2023-04-15T07:22:40;99469.78;;;9.40;100.00
5413;BME280;2729;50.056;8.678;2023-04-15T07:25:06;99468.88;;;9.67;100.00
5413;BME280;2729;50.056;8.678;2023-04-15T07:27:32;99470.16;;;9.80;100.00
5413;BME280;2729;50.056;8.678;2023-04-15T07:29:58;99472.69;;;9.82;100.00
5413;BME280;2729;50.056;8.678;2023-04-15T07:32:24;99470.78;;;9.87;100.00
5413;BME280;2729;50.056;8.678;2023-04-15T07:34:50;99476.75;;;9.90;100.00
5413;BME280;2729;50.056;8.678;2023-04-15T07:37:16;99473.13;;;9.94;100.00
5413;BME280;2729;50.056;8.678;2023-04-15T07:39:43;99470.88;;;10.09;100.00
5413;BME280;2729;50.056;8.678;2023-04-15T07:42:10;99468.03;;;10.15;100.00
5413;BME280;2729;50.056;8.678;2023-04-15T07:44:36;99468.09;;;10.13;100.00
5413;BME280;2729;50.056;8.678;2023-04-15T07:47:02;99473.31;;;10.38;100.00
5413;BME280;2729;50.056;8.678;2023-04-15T07:49:28;99468.31;;;10.32;100.00
5413;BME280;2729;50.056;8.678;2023-04-15T07:51:54;99465.72;;;10.55;100.00
5413;BME280;2729;50.056;8.678;2023-04-15T07:54:21;99476.41;;;10.49;100.00
5413;BME280;2729;50.056;8.678;2023-04-15T07:56:47;99467.78;;;10.92;100.00
5413;BME280;2729;50.056;8.678;2023-04-15T07:59:13;99471.41;;;11.10;100.00
5413;BME280;2729;50.056;8.678;2023-04-15T08:01:42;99470.94;;;11.01;100.00
5413;BME280;2729;50.056;8.678;2023-04-15T08:04:08;99459.03;;;11.15;100.00
5413;BME280;2729;50.056;8.678;2023-04-15T08:06:35;99465.41;;;11.50;100.00
5413;BME280;2729;50.056;8.678;2023-04-15T08:09:05;99467.84;;;11.55;100.00
5413;BME280;2729;50.056;8.678;2023-04-15T08:11:31;99472.41;;;11.70;100.00
5413;BME280;2729;50.056;8.678;2023-04-15T08:13:57;99468.41;;;11.83;100.00
5413;BME280;2729;50.056;8.678;2023-04-15T08:16:25;99467.75;;;11.78;100.00
5413;BME280;2729;50.056;8.678;2023-04-15T08:18:54;99472.53;;;11.67;100.00
5413;BME280;2729;50.056;8.678;2023-04-15T08:21:20;99459.25;;;11.94;100.00
5413;BME280;2729;50.056;8.678;2023-04-15T08:23:47;99463.41;;;11.98;100.00
5413;BME280;2729;50.056;8.678;2023-04-15T08:26:15;99469.16;;;12.06;100.00
5413;BME280;2729;50.056;8.678;2023-04-15T08:28:42;99464.31;;;12.17;100.00
5413;BME280;2729;50.056;8.678;2023-04-15T08:31:09;99471.59;;;12.29;100.00
5413;BME280;2729;50.056;8.678;2023-04-15T08:33:35;99470.19;;;12.22;100.00
5413;BME280;2729;50.056;8.678;2023-04-15T08:36:01;99466.66;;;12.42;100.00
5413;BME280;2729;50.056;8.678;2023-04-15T08:38:27;99459.53;;;12.64;100.00
5413;BME280;2729;50.056;8.678;2023-04-15T08:40:54;99465.97;;;12.38;100.00
5413;BME280;2729;50.056;8.678;2023-04-15T08:43:23;99468.50;;;12.40;100.00
5413;BME280;2729;50.056;8.678;2023-04-15T08:45:53;99465.81;;;12.60;100.00
5413;BME280;2729;50.056;8.678;2023-04-15T08:48:20;99463.34;;;12.57;98.21
5413;BME280;2729;50.056;8.678;2023-04-15T08:50:47;99460.94;;;12.71;95.74
5413;BME280;2729;50.056;8.678;2023-04-15T08:53:13;99459.09;;;12.73;91.13
5413;BME280;2729;50.056;8.678;2023-04-15T08:55:44;99458.38;;;13.07;90.61
5413;BME280;2729;50.056;8.678;2023-04-15T08:58:15;99457.47;;;13.08;88.70
5413;BME280;2729;50.056;8.678;2023-04-15T09:00:41;99463.25;;;12.96;85.25
5413;BME280;2729;50.056;8.678;2023-04-15T09:03:08;99475.88;;;13.07;88.11
5413;BME280;2729;50.056;8.678;2023-04-15T09:05:35;99471.88;;;12.98;85.70
5413;BME280;2729;50.056;8.678;2023-04-15T09:08:02;99470.47;;;13.29;86.02
5413;BME280;2729;50.056;8.678;2023-04-15T09:10:29;99470.72;;;13.41;87.19
5413;BME280;2729;50.056;8.678;2023-04-15T09:12:55;99471.94;;;13.51;86.24
5413;BME280;2729;50.056;8.678;2023-04-15T09:15:24;99469.47;;;13.31;80.45
5413;BME280;2729;50.056;8.678;2023-04-15T09:17:52;99465.72;;;13.54;84.53
5413;BME280;2729;50.056;8.678;2023-04-15T09:20:18;99475.31;;;13.19;79.11
5413;BME280;2729;50.056;8.678;2023-04-15T09:22:45;99479.47;;;13.04;81.12
5413;BME280;2729;50.056;8.678;2023-04-15T09:27:48;99482.03;;;13.42;83.93
5413;BME280;2729;50.056;8.678;2023-04-15T09:30:14;99478.34;;;13.46;80.16
5413;BME280;2729;50.056;8.678;2023-04-15T09:35:20;99486.84;;;13.51;83.45
5413;BME280;2729;50.056;8.678;2023-04-15T09:37:47;99494.47;;;13.56;80.36
5413;BME280;2729;50.056;8.678;2023-04-15T09:40:14;99493.31;;;13.44;79.24
5413;BME280;2729;50.056;8.678;2023-04-15T09:42:53;99492.94;;;13.51;79.99
5413;BME280;2729;50.056;8.678;2023-04-15T09:45:21;99493.47;;;13.93;80.54
5413;BME280;2729;50.056;8.678;2023-04-15T09:47:47;99501.88;;;13.99;78.32
5413;BME280;2729;50.056;8.678;2023-04-15T09:50:13;99505.88;;;13.37;78.17
5413;BME280;2729;50.056;8.678;2023-04-15T09:52:42;99511.41;;;13.31;79.30
5413;BME280;2729;50.056;8.678;2023-04-15T09:55:10;99515.91;;;13.46;76.47
5413;BME280;2729;50.056;8.678;2023-04-15T09:57:37;99513.75;;;13.55;75.42
5413;BME280;2729;50.056;8.678;2023-04-15T10:00:04;99520.06;;;13.50;78.33
5413;BME280;2729;50.056;8.678;2023-04-15T10:02:32;99519.63;;;13.60;77.21
5413;BME280;2729;50.056;8.678;2023-04-15T10:04:59;99518.44;;;13.48;76.06
5413;BME280;2729;50.056;8.678;2023-04-15T10:07:26;99525.72;;;13.24;76.26
5413;BME280;2729;50.056;8.678;2023-04-15T10:09:55;99523.66;;;13.31;76.71
5413;BME280;2729;50.056;8.678;2023-04-15T10:12:21;99534.72;;;13.18;75.91
5413;BME280;2729;50.056;8.678;2023-04-15T10:14:51;99529.25;;;13.59;77.00
5413;BME280;2729;50.056;8.678;2023-04-15T10:17:21;99535.56;;;13.55;76.39
5413;BME280;2729;50.056;8.678;2023-04-15T10:19:48;99537.59;;;13.67;77.25
5413;BME280;2729;50.056;8.678;2023-04-15T10:22:15;99537.50;;;13.69;77.55
5413;BME280;2729;50.056;8.678;2023-04-15T10:24:42;99537.44;;;13.70;77.15
5413;BME280;2729;50.056;8.678;2023-04-15T10:27:10;99541.22;;;13.65;76.45
5413;BME280;2729;50.056;8.678;2023-04-15T10:29:36;99549.50;;;13.38;76.60
5413;BME280;2729;50.056;8.678;2023-04-15T10:32:02;99550.84;;;13.28;77.68
5413;BME280;2729;50.056;8.678;2023-04-15T10:34:29;99550.53;;;13.53;75.88
5413;BME280;2729;50.056;8.678;2023-04-15T10:36:58;99546.00;;;13.74;75.19
5413;BME280;2729;50.056;8.678;2023-04-15T10:42:08;99555.78;;;14.22;76.14
5413;BME280;2729;50.056;8.678;2023-04-15T10:44:35;99558.34;;;14.24;74.95
5413;BME280;2729;50.056;8.678;2023-04-15T10:47:08;99562.75;;;14.23;75.70
5413;BME280;2729;50.056;8.678;2023-04-15T10:49:42;99554.84;;;14.58;73.48
5413;BME280;2729;50.056;8.678;2023-04-15T10:52:09;99569.16;;;14.18;72.61
5413;BME280;2729;50.056;8.678;2023-04-15T10:54:35;99564.53;;;14.23;74.88
5413;BME280;2729;50.056;8.678;2023-04-15T10:59:58;99559.31;;;14.38;75.73
5413;BME280;2729;50.056;8.678;2023-04-15T11:02:55;99565.22;;;14.26;75.53
5413;BME280;2729;50.056;8.678;2023-04-15T11:08:09;99565.91;;;14.30;77.66
5413;BME280;2729;50.056;8.678;2023-04-15T11:13:03;99563.03;;;14.34;78.31
5413;BME280;2729;50.056;8.678;2023-04-15T11:20:45;99569.38;;;14.80;78.44
5413;BME280;2729;50.056;8.678;2023-04-15T11:23:19;99568.16;;;15.19;78.63
5413;BME280;2729;50.056;8.678;2023-04-15T11:25:54;99570.25;;;15.44;73.59
5413;BME280;2729;50.056;8.678;2023-04-15T11:28:24;99576.19;;;15.16;72.99
5413;BME280;2729;50.056;8.678;2023-04-15T11:30:50;99573.72;;;14.97;73.69
5413;BME280;2729;50.056;8.678;2023-04-15T11:33:16;99569.63;;;14.76;74.53
5413;BME280;2729;50.056;8.678;2023-04-15T11:35:42;99581.09;;;14.91;74.28
5413;BME280;2729;50.056;8.678;2023-04-15T11:38:12;99590.63;;;14.76;78.27
5413;BME280;2729;50.056;8.678;2023-04-15T11:40:39;99588.97;;;14.40;76.28
5413;BME280;2729;50.056;8.678;2023-04-15T11:43:24;99596.78;;;14.07;80.91
5413;BME280;2729;50.056;8.678;2023-04-15T11:45:56;99590.28;;;14.66;81.77
5413;BME280;2729;50.056;8.678;2023-04-15T11:48:24;99603.03;;;14.39;89.58
5413;BME280;2729;50.056;8.678;2023-04-15T11:51:20;99603.34;;;14.33;93.62
5413;BME280;2729;50.056;8.678;2023-04-15T11:53:49;99603.97;;;14.21;100.00
5413;BME280;2729;50.056;8.678;2023-04-15T11:56:17;99611.66;;;13.90;100.00
5413;BME280;2729;50.056;8.678;2023-04-15T11:58:43;99613.78;;;13.64;100.00
5413;BME280;2729;50.056;8.678;2023-04-15T12:01:11;99625.44;;;13.40;100.00
5413;BME280;2729;50.056;8.678;2023-04-15T12:03:39;99624.16;;;13.30;100.00
5413;BME280;2729;50.056;8.678;2023-04-15T12:06:11;99627.53;;;13.13;100.00
5413;BME280;2729;50.056;8.678;2023-04-15T12:08:57;99630.34;;;13.83;100.00
5413;BME280;2729;50.056;8.678;2023-04-15T12:11:27;99635.75;;;13.62;100.00
5413;BME280;2729;50.056;8.678;2023-04-15T12:14:01;99644.59;;;13.03;100.00
5413;BME280;2729;50.056;8.678;2023-04-15T12:16:28;99650.63;;;13.05;100.00
5413;BME280;2729;50.056;8.678;2023-04-15T12:18:56;99648.44;;;13.14;100.00
5413;BME280;2729;50.056;8.678;2023-04-15T12:21:23;99665.81;;;13.17;100.00
5413;BME280;2729;50.056;8.678;2023-04-15T12:23:49;99662.13;;;13.21;100.00
5413;BME280;2729;50.056;8.678;2023-04-15T12:26:16;99671.34;;;13.30;100.00
5413;BME280;2729;50.056;8.678;2023-04-15T12:28:43;99677.50;;;13.29;100.00
5413;BME280;2729;50.056;8.678;2023-04-15T12:31:09;99682.97;;;13.04;100.00
5413;BME280;2729;50.056;8.678;2023-04-15T12:33:36;99683.53;;;13.10;100.00
5413;BME280;2729;50.056;8.678;2023-04-15T12:36:02;99686.97;;;12.72;100.00
5413;BME280;2729;50.056;8.678;2023-04-15T12:38:29;99690.81;;;12.63;100.00
5413;BME280;2729;50.056;8.678;2023-04-15T12:41:02;99694.47;;;12.39;100.00
5413;BME280;2729;50.056;8.678;2023-04-15T12:43:28;99707.00;;;12.73;100.00
5413;BME280;2729;50.056;8.678;2023-04-15T12:45:54;99704.97;;;12.79;100.00
5413;BME280;2729;50.056;8.678;2023-04-15T12:48:21;99708.94;;;12.88;100.00
5413;BME280;2729;50.056;8.678;2023-04-15T12:50:46;99706.13;;;12.93;100.00
5413;BME280;2729;50.056;8.678;2023-04-15T12:53:12;99712.75;;;12.81;100.00
5413;BME280;2729;50.056;8.678;2023-04-15T12:55:39;99715.31;;;12.82;100.00
5413;BME280;2729;50.056;8.678;2023-04-15T12:58:05;99714.59;;;12.79;100.00
5413;BME280;2729;50.056;8.678;2023-04-15T13:00:33;99708.69;;;12.74;100.00
5413;BME280;2729;50.056;8.678;2023-04-15T13:02:59;99713.34;;;12.67;100.00
5413;BME280;2729;50.056;8.678;2023-04-15T13:05:25;99725.97;;;12.57;100.00
5413;BME280;2729;50.056;8.678;2023-04-15T13:07:51;99725.34;;;12.31;100.00
5413;BME280;2729;50.056;8.678;2023-04-15T13:10:17;99724.72;;;12.66;100.00
5413;BME280;2729;50.056;8.678;2023-04-15T13:12:43;99724.00;;;12.42;100.00
5413;BME280;2729;50.056;8.678;2023-04-15T13:15:11;99723.28;;;12.17;100.00
5413;BME280;2729;50.056;8.678;2023-04-15T13:17:37;99731.63;;;12.27;100.00
5413;BME280;2729;50.056;8.678;2023-04-15T13:20:03;99739.81;;;12.39;100.00
5413;BME280;2729;50.056;8.678;2023-04-15T13:22:30;99728.69;;;11.90;100.00
5413;BME280;2729;50.056;8.678;2023-04-15T13:24:56;99737.41;;;11.91;100.00
5413;BME280;2729;50.056;8.678;2023-04-15T13:27:22;99737.78;;;12.04;100.00
5413;BME280;2729;50.056;8.678;2023-04-15T13:29:48;99741.78;;;11.90;100.00
5413;BME280;2729;50.056;8.678;2023-04-15T13:32:14;99742.88;;;11.85;100.00
5413;BME280;2729;50.056;8.678;2023-04-15T13:34:40;99745.44;;;12.08;100.00
5413;BME280;2729;50.056;8.678;2023-04-15T13:37:06;99746.63;;;11.78;100.00
5413;BME280;2729;50.056;8.678;2023-04-15T13:39:32;99742.94;;;11.83;100.00